sensor_id;sensor_type;location;lat;lon;timestamp;pressure;altitude;pressure_sealevel;temperature;humidity
72370;BME280;60343;-32.030;115.880;2023-01-15T00:01:40;101393.31;;;24.45;34.73
72370;BME280;60343;-32.030;115.880;2023-01-15T00:04:14;101395.56;;;24.48;34.58
72370;BME280;60343;-32.030;115.880;2023-01-15T00:06:49;101390.47;;;24.73;34.68
72370;BME280;60343;-32.030;115.880;2023-01-15T00:09:29;101390.22;;;24.91;33.97
72370;BME280;60343;-32.030;115.880;2023-01-15T00:12:04;101388.66;;;24.78;33.72
72370;BME280;60343;-32.030;115.880;2023-01-15T00:14:39;101377.88;;;24.89;33.55
72370;BME280;60343;-32.030;115.880;2023-01-15T00:17:14;101372.47;;;24.94;33.49
72370;BME280;60343;-32.030;115.880;2023-01-15T00:19:48;101361.09;;;25.07;33.56
72370;BME280;60343;-32.030;115.880;2023-01-15T00:22:23;101366.19;;;25.20;33.35
72370;BME280;60343;-32.030;115.880;2023-01-15T00:25:03;101369.97;;;25.57;32.90
72370;BME280;60343;-32.030;115.880;2023-01-15T00:27:47;101361.03;;;25.99;32.71
72370;BME280;60343;-32.030;115.880;2023-01-15T00:30:21;101354.47;;;26.32;31.39
72370;BME280;60343;-32.030;115.880;2023-01-15T00:32:57;101346.88;;;26.12;31.58
72370;BME280;60343;-32.030;115.880;2023-01-15T00:35:32;101348.69;;;26.28;32.24
72370;BME280;60343;-32.030;115.880;2023-01-15T00:38:06;101346.84;;;26.39;31.38
72370;BME280;60343;-32.030;115.880;2023-01-15T00:40:46;101345.59;;;26.62;31.74
72370;BME280;60343;-32.030;115.880;2023-01-15T00:43:21;101339.34;;;26.76;30.83
72370;BME280;60343;-32.030;115.880;2023-01-15T00:45:55;101335.41;;;27.04;31.06
72370;BME280;60343;-32.030;115.880;2023-01-15T00:48:31;101330.81;;;27.20;30.65
72370;BME280;60343;-32.030;115.880;2023-01-15T00:51:06;101332.69;;;27.14;30.83
72370;BME280;60343;-32.030;115.880;2023-01-15T00:53:40;101330.63;;;27.57;30.58
72370;BME280;60343;-32.030;115.880;2023-01-15T00:56:20;101333.72;;;27.86;29.50
72370;BME280;60343;-32.030;115.880;2023-01-15T00:58:55;101334.53;;;28.06;28.99
72370;BME280;60343;-32.030;115.880;2023-01-15T01:01:30;101328.75;;;27.93;29.11
72370;BME280;60343;-32.030;115.880;2023-01-15T01:04:05;101311.41;;;27.82;29.57
72370;BME280;60343;-32.030;115.880;2023-01-15T01:06:40;101319.13;;;27.70;30.17
72370;BME280;60343;-32.030;115.880;2023-01-15T01:09:15;101314.44;;;27.86;30.50
72370;BME280;60343;-32.030;115.880;2023-01-15T01:11:55;101312.72;;;27.44;30.14
72370;BME280;60343;-32.030;115.880;2023-01-15T01:14:30;101308.34;;;27.58;30.31
72370;BME280;60343;-32.030;115.880;2023-01-15T01:17:05;101307.31;;;28.15;29.50
72370;BME280;60343;-32.030;115.880;2023-01-15T01:19:39;101293.66;;;28.69;29.72
72370;BME280;60343;-32.030;115.880;2023-01-15T01:22:15;101289.75;;;28.95;28.42
72370;BME280;60343;-32.030;115.880;2023-01-15T01:24:49;101296.84;;;29.12;27.74
72370;BME280;60343;-32.030;115.880;2023-01-15T01:27:29;101300.19;;;29.48;27.97
72370;BME280;60343;-32.030;115.880;2023-01-15T01:30:04;101286.56;;;29.66;27.68
72370;BME280;60343;-32.030;115.880;2023-01-15T01:32:39;101276.56;;;29.75;27.01
72370;BME280;60343;-32.030;115.880;2023-01-15T01:35:16;101276.34;;;30.01;26.51
72370;BME280;60343;-32.030;115.880;2023-01-15T01:37:51;101283.09;;;29.84;27.02
72370;BME280;60343;-32.030;115.880;2023-01-15T01:40:26;101271.47;;;29.93;28.03
72370;BME280;60343;-32.030;115.880;2023-01-15T01:43:08;101278.09;;;30.44;27.06
72370;BME280;60343;-32.030;115.880;2023-01-15T01:45:50;101271.09;;;30.99;26.36
72370;BME280;60343;-32.030;115.880;2023-01-15T01:48:29;101272.88;;;31.33;25.55
72370;BME280;60343;-32.030;115.880;2023-01-15T01:51:07;101269.13;;;31.42;24.96
72370;BME280;60343;-32.030;115.880;2023-01-15T01:53:41;101263.59;;;31.42;24.71
72370;BME280;60343;-32.030;115.880;2023-01-15T01:56:17;101257.97;;;31.66;24.67
72370;BME280;60343;-32.030;115.880;2023-01-15T01:58:57;101249.19;;;31.78;24.82
72370;BME280;60343;-32.030;115.880;2023-01-15T02:01:31;101252.25;;;31.76;24.87
72370;BME280;60343;-32.030;115.880;2023-01-15T02:04:06;101246.19;;;31.56;25.06
72370;BME280;60343;-32.030;115.880;2023-01-15T02:06:42;101246.56;;;31.49;25.64
72370;BME280;60343;-32.030;115.880;2023-01-15T02:09:17;101244.81;;;31.21;25.91
72370;BME280;60343;-32.030;115.880;2023-01-15T02:11:52;101233.13;;;31.61;25.79
72370;BME280;60343;-32.030;115.880;2023-01-15T02:14:40;101229.72;;;31.83;25.07
72370;BME280;60343;-32.030;115.880;2023-01-15T02:17:17;101237.72;;;31.33;25.60
72370;BME280;60343;-32.030;115.880;2023-01-15T02:20:08;101222.34;;;30.85;26.21
72370;BME280;60343;-32.030;115.880;2023-01-15T02:22:56;101228.44;;;31.24;26.30
72370;BME280;60343;-32.030;115.880;2023-01-15T02:25:44;101215.16;;;30.84;27.05
72370;BME280;60343;-32.030;115.880;2023-01-15T02:28:31;101218.00;;;31.02;26.76
72370;BME280;60343;-32.030;115.880;2023-01-15T02:31:11;101210.06;;;31.33;26.53
72370;BME280;60343;-32.030;115.880;2023-01-15T02:33:50;101199.34;;;31.78;25.16
72370;BME280;60343;-32.030;115.880;2023-01-15T02:36:33;101205.06;;;32.14;24.98
72370;BME280;60343;-32.030;115.880;2023-01-15T02:39:11;101204.03;;;32.37;25.14
72370;BME280;60343;-32.030;115.880;2023-01-15T02:41:50;101189.25;;;32.42;24.95
72370;BME280;60343;-32.030;115.880;2023-01-15T02:44:34;101191.81;;;32.52;24.78
72370;BME280;60343;-32.030;115.880;2023-01-15T02:47:11;101184.44;;;32.47;24.78
72370;BME280;60343;-32.030;115.880;2023-01-15T02:49:47;101181.97;;;32.18;24.90
72370;BME280;60343;-32.030;115.880;2023-01-15T02:52:26;101174.69;;;32.22;25.48
72370;BME280;60343;-32.030;115.880;2023-01-15T02:55:04;101172.09;;;32.53;25.39
72370;BME280;60343;-32.030;115.880;2023-01-15T02:57:41;101165.53;;;32.35;24.32
72370;BME280;60343;-32.030;115.880;2023-01-15T03:00:26;101157.97;;;32.27;24.93
72370;BME280;60343;-32.030;115.880;2023-01-15T03:03:07;101154.47;;;32.22;26.13
72370;BME280;60343;-32.030;115.880;2023-01-15T03:05:44;101150.78;;;32.13;25.23
72370;BME280;60343;-32.030;115.880;2023-01-15T03:08:25;101154.44;;;32.08;25.08
72370;BME280;60343;-32.030;115.880;2023-01-15T03:11:04;101147.19;;;32.12;25.92
72370;BME280;60343;-32.030;115.880;2023-01-15T03:13:45;101139.69;;;32.13;25.78
72370;BME280;60343;-32.030;115.880;2023-01-15T03:16:30;101139.69;;;32.26;25.87
72370;BME280;60343;-32.030;115.880;2023-01-15T03:19:16;101127.16;;;32.29;25.64
72370;BME280;60343;-32.030;115.880;2023-01-15T03:21:58;101119.94;;;32.42;25.34
72370;BME280;60343;-32.030;115.880;2023-01-15T03:24:39;101109.28;;;32.49;25.12
72370;BME280;60343;-32.030;115.880;2023-01-15T03:27:16;101104.19;;;32.28;25.77
72370;BME280;60343;-32.030;115.880;2023-01-15T03:29:53;101100.66;;;31.95;25.67
72370;BME280;60343;-32.030;115.880;2023-01-15T03:32:34;101105.00;;;32.29;24.84
72370;BME280;60343;-32.030;115.880;2023-01-15T03:35:38;101101.22;;;32.61;24.72
72370;BME280;60343;-32.030;115.880;2023-01-15T03:38:17;101097.31;;;32.62;24.87
72370;BME280;60343;-32.030;115.880;2023-01-15T03:41:03;101087.59;;;32.87;25.23
72370;BME280;60343;-32.030;115.880;2023-01-15T03:47:22;101068.94;;;33.54;23.86
72370;BME280;60343;-32.030;115.880;2023-01-15T03:50:33;101071.69;;;33.01;23.70
72370;BME280;60343;-32.030;115.880;2023-01-15T03:53:16;101057.78;;;32.56;24.41
72370;BME280;60343;-32.030;115.880;2023-01-15T03:55:57;101053.19;;;32.52;24.82
72370;BME280;60343;-32.030;115.880;2023-01-15T03:58:37;101048.75;;;32.87;24.66
72370;BME280;60343;-32.030;115.880;2023-01-15T04:01:15;101052.19;;;33.37;23.37
72370;BME280;60343;-32.030;115.880;2023-01-15T04:03:52;101044.66;;;33.29;23.46
72370;BME280;60343;-32.030;115.880;2023-01-15T04:06:36;101039.38;;;33.49;23.34
72370;BME280;60343;-32.030;115.880;2023-01-15T04:09:15;101037.38;;;33.81;23.61
72370;BME280;60343;-32.030;115.880;2023-01-15T04:11:50;101018.78;;;34.16;22.58
72370;BME280;60343;-32.030;115.880;2023-01-15T04:14:24;101019.88;;;33.80;22.17
72370;BME280;60343;-32.030;115.880;2023-01-15T04:16:59;101016.81;;;33.51;23.26
72370;BME280;60343;-32.030;115.880;2023-01-15T04:19:34;101017.16;;;33.49;22.27
72370;BME280;60343;-32.030;115.880;2023-01-15T04:22:15;101006.50;;;33.82;24.08
72370;BME280;60343;-32.030;115.880;2023-01-15T04:24:53;101014.59;;;34.44;22.58
72370;BME280;60343;-32.030;115.880;2023-01-15T04:27:28;101006.09;;;34.49;21.29
72370;BME280;60343;-32.030;115.880;2023-01-15T04:30:06;101004.31;;;34.44;22.60
72370;BME280;60343;-32.030;115.880;2023-01-15T04:32:46;101006.09;;;34.32;22.51
72370;BME280;60343;-32.030;115.880;2023-01-15T04:35:22;101006.09;;;34.32;22.52
72370;BME280;60343;-32.030;115.880;2023-01-15T04:38:05;100994.66;;;34.25;23.50
72370;BME280;60343;-32.030;115.880;2023-01-15T04:40:47;100984.81;;;34.36;22.44
72370;BME280;60343;-32.030;115.880;2023-01-15T04:43:33;100972.03;;;34.86;21.80
72370;BME280;60343;-32.030;115.880;2023-01-15T04:46:19;100969.81;;;35.18;22.21
72370;BME280;60343;-32.030;115.880;2023-01-15T04:48:54;100977.16;;;35.31;21.86
72370;BME280;60343;-32.030;115.880;2023-01-15T04:51:29;100964.03;;;35.32;20.30
72370;BME280;60343;-32.030;115.880;2023-01-15T04:54:11;100968.06;;;35.43;21.11
72370;BME280;60343;-32.030;115.880;2023-01-15T04:56:47;100959.00;;;35.54;20.68
72370;BME280;60343;-32.030;115.880;2023-01-15T04:59:24;100957.00;;;35.34;20.79
72370;BME280;60343;-32.030;115.880;2023-01-15T05:01:59;100943.38;;;34.86;20.63
72370;BME280;60343;-32.030;115.880;2023-01-15T05:04:34;100945.94;;;34.19;23.68
72370;BME280;60343;-32.030;115.880;2023-01-15T05:07:09;100942.47;;;34.04;26.40
72370;BME280;60343;-32.030;115.880;2023-01-15T05:09:52;100932.34;;;34.34;25.50
72370;BME280;60343;-32.030;115.880;2023-01-15T05:12:35;100934.28;;;34.68;25.12
72370;BME280;60343;-32.030;115.880;2023-01-15T05:15:10;100932.47;;;34.55;25.72
72370;BME280;60343;-32.030;115.880;2023-01-15T05:17:54;100931.50;;;34.68;24.28
72370;BME280;60343;-32.030;115.880;2023-01-15T05:20:29;100928.84;;;34.80;24.42
72370;BME280;60343;-32.030;115.880;2023-01-15T05:23:03;100922.38;;;35.06;24.70
72370;BME280;60343;-32.030;115.880;2023-01-15T05:25:46;100912.84;;;35.15;23.89
72370;BME280;60343;-32.030;115.880;2023-01-15T05:28:21;100911.06;;;35.11;23.56
72370;BME280;60343;-32.030;115.880;2023-01-15T05:30:55;100916.25;;;34.66;24.40
72370;BME280;60343;-32.030;115.880;2023-01-15T05:33:32;100920.69;;;34.58;25.51
72370;BME280;60343;-32.030;115.880;2023-01-15T05:36:08;100921.84;;;34.49;25.31
72370;BME280;60343;-32.030;115.880;2023-01-15T05:38:44;100916.13;;;34.11;26.16
72370;BME280;60343;-32.030;115.880;2023-01-15T05:41:24;100915.13;;;33.81;26.63
72370;BME280;60343;-32.030;115.880;2023-01-15T05:44:08;100901.84;;;33.43;27.36
72370;BME280;60343;-32.030;115.880;2023-01-15T05:46:44;100906.44;;;33.08;28.39
72370;BME280;60343;-32.030;115.880;2023-01-15T05:49:28;100905.22;;;32.92;28.75
72370;BME280;60343;-32.030;115.880;2023-01-15T05:52:04;100908.94;;;32.88;29.43
72370;BME280;60343;-32.030;115.880;2023-01-15T05:54:41;100895.09;;;33.36;29.66
72370;BME280;60343;-32.030;115.880;2023-01-15T05:57:21;100892.22;;;33.58;28.54
72370;BME280;60343;-32.030;115.880;2023-01-15T05:59:56;100885.47;;;33.25;29.91
72370;BME280;60343;-32.030;115.880;2023-01-15T06:02:31;100885.34;;;33.55;28.89
72370;BME280;60343;-32.030;115.880;2023-01-15T06:05:06;100881.31;;;33.87;28.04
72370;BME280;60343;-32.030;115.880;2023-01-15T06:07:40;100871.53;;;33.98;28.83
72370;BME280;60343;-32.030;115.880;2023-01-15T06:10:16;100873.63;;;33.76;28.37
72370;BME280;60343;-32.030;115.880;2023-01-15T06:12:56;100874.53;;;33.37;28.79
72370;BME280;60343;-32.030;115.880;2023-01-15T06:15:30;100863.19;;;33.73;28.49
72370;BME280;60343;-32.030;115.880;2023-01-15T06:18:05;100856.31;;;34.04;27.28
72370;BME280;60343;-32.030;115.880;2023-01-15T06:20:40;100855.19;;;33.88;26.82
72370;BME280;60343;-32.030;115.880;2023-01-15T06:23:17;100861.16;;;33.56;27.41
72370;BME280;60343;-32.030;115.880;2023-01-15T06:25:52;100857.06;;;33.36;28.64
72370;BME280;60343;-32.030;115.880;2023-01-15T06:28:32;100851.50;;;33.19;28.85
72370;BME280;60343;-32.030;115.880;2023-01-15T06:31:08;100844.91;;;33.15;28.49
72370;BME280;60343;-32.030;115.880;2023-01-15T06:33:42;100846.75;;;33.19;27.97
72370;BME280;60343;-32.030;115.880;2023-01-15T06:36:18;100844.59;;;33.16;29.12
72370;BME280;60343;-32.030;115.880;2023-01-15T06:38:54;100833.44;;;32.99;28.87
72370;BME280;60343;-32.030;115.880;2023-01-15T06:41:28;100816.59;;;32.87;29.99
72370;BME280;60343;-32.030;115.880;2023-01-15T06:44:26;100819.72;;;32.94;29.34
72370;BME280;60343;-32.030;115.880;2023-01-15T06:47:13;100815.31;;;33.02;29.45
72370;BME280;60343;-32.030;115.880;2023-01-15T06:49:55;100822.22;;;33.13;29.50
72370;BME280;60343;-32.030;115.880;2023-01-15T06:52:30;100814.50;;;32.62;30.08
72370;BME280;60343;-32.030;115.880;2023-01-15T06:55:05;100805.44;;;32.70;30.43
72370;BME280;60343;-32.030;115.880;2023-01-15T06:57:39;100795.50;;;32.69;29.80
72370;BME280;60343;-32.030;115.880;2023-01-15T07:00:20;100805.16;;;32.18;30.73
72370;BME280;60343;-32.030;115.880;2023-01-15T07:02:55;100796.16;;;32.74;30.46
72370;BME280;60343;-32.030;115.880;2023-01-15T07:05:29;100792.75;;;32.86;29.52
72370;BME280;60343;-32.030;115.880;2023-01-15T07:08:04;100790.97;;;32.90;29.52
72370;BME280;60343;-32.030;115.880;2023-01-15T07:10:39;100787.59;;;33.10;28.86
72370;BME280;60343;-32.030;115.880;2023-01-15T07:13:13;100789.22;;;33.11;29.11
72370;BME280;60343;-32.030;115.880;2023-01-15T07:15:53;100774.69;;;33.06;29.02
72370;BME280;60343;-32.030;115.880;2023-01-15T07:18:29;100780.84;;;32.77;29.19
72370;BME280;60343;-32.030;115.880;2023-01-15T07:21:04;100782.63;;;32.73;29.50
72370;BME280;60343;-32.030;115.880;2023-01-15T07:23:39;100771.34;;;32.69;29.36
72370;BME280;60343;-32.030;115.880;2023-01-15T07:26:13;100781.81;;;32.81;29.68
72370;BME280;60343;-32.030;115.880;2023-01-15T07:28:47;100757.50;;;32.78;29.53
72370;BME280;60343;-32.030;115.880;2023-01-15T07:31:27;100750.97;;;32.74;28.90
72370;BME280;60343;-32.030;115.880;2023-01-15T07:34:02;100757.06;;;32.54;29.73
72370;BME280;60343;-32.030;115.880;2023-01-15T07:36:37;100765.25;;;32.59;29.47
72370;BME280;60343;-32.030;115.880;2023-01-15T07:39:12;100750.50;;;32.50;30.37
72370;BME280;60343;-32.030;115.880;2023-01-15T07:41:46;100737.06;;;31.73;31.05
72370;BME280;60343;-32.030;115.880;2023-01-15T07:44:29;100744.53;;;31.72;31.24
72370;BME280;60343;-32.030;115.880;2023-01-15T07:47:21;100733.16;;;31.74;30.82
72370;BME280;60343;-32.030;115.880;2023-01-15T07:50:07;100727.97;;;31.81;31.03
72370;BME280;60343;-32.030;115.880;2023-01-15T07:52:42;100736.81;;;31.83;30.84
72370;BME280;60343;-32.030;115.880;2023-01-15T07:55:17;100729.81;;;31.63;30.40
72370;BME280;60343;-32.030;115.880;2023-01-15T07:57:51;100725.13;;;31.14;31.96
72370;BME280;60343;-32.030;115.880;2023-01-15T08:00:26;100719.00;;;31.39;31.98
72370;BME280;60343;-32.030;115.880;2023-01-15T08:03:06;100719.94;;;31.71;31.57
72370;BME280;60343;-32.030;115.880;2023-01-15T08:05:40;100711.06;;;31.60;32.03
72370;BME280;60343;-32.030;115.880;2023-01-15T08:08:16;100726.53;;;31.25;32.20
72370;BME280;60343;-32.030;115.880;2023-01-15T08:10:50;100708.69;;;30.82;33.06
72370;BME280;60343;-32.030;115.880;2023-01-15T08:13:33;100712.31;;;30.55;32.93
72370;BME280;60343;-32.030;115.880;2023-01-15T08:16:16;100714.44;;;30.31;33.80
72370;BME280;60343;-32.030;115.880;2023-01-15T08:18:56;100714.59;;;30.07;34.29
72370;BME280;60343;-32.030;115.880;2023-01-15T08:21:30;100704.25;;;29.99;34.23
72370;BME280;60343;-32.030;115.880;2023-01-15T08:24:05;100701.22;;;29.81;35.75
72370;BME280;60343;-32.030;115.880;2023-01-15T08:26:39;100703.53;;;29.61;35.63
72370;BME280;60343;-32.030;115.880;2023-01-15T08:29:14;100708.75;;;29.43;36.59
72370;BME280;60343;-32.030;115.880;2023-01-15T08:31:48;100707.94;;;29.43;36.99
72370;BME280;60343;-32.030;115.880;2023-01-15T08:34:30;100710.97;;;29.23;36.51
72370;BME280;60343;-32.030;115.880;2023-01-15T08:37:05;100704.56;;;29.09;37.15
72370;BME280;60343;-32.030;115.880;2023-01-15T08:39:39;100697.78;;;29.20;36.77
72370;BME280;60343;-32.030;115.880;2023-01-15T08:42:16;100692.38;;;28.96;37.86
72370;BME280;60343;-32.030;115.880;2023-01-15T08:44:50;100688.25;;;28.93;38.33
72370;BME280;60343;-32.030;115.880;2023-01-15T08:47:25;100687.06;;;28.99;38.55
72370;BME280;60343;-32.030;115.880;2023-01-15T08:50:05;100689.22;;;28.84;39.04
72370;BME280;60343;-32.030;115.880;2023-01-15T08:52:40;100688.53;;;28.73;38.64
72370;BME280;60343;-32.030;115.880;2023-01-15T08:55:17;100685.13;;;28.57;39.11
72370;BME280;60343;-32.030;115.880;2023-01-15T08:57:51;100693.91;;;28.59;39.21
72370;BME280;60343;-32.030;115.880;2023-01-15T09:00:26;100696.75;;;28.54;38.96
72370;BME280;60343;-32.030;115.880;2023-01-15T09:03:00;100681.53;;;28.57;38.71
72370;BME280;60343;-32.030;115.880;2023-01-15T09:05:42;100682.75;;;28.51;38.73
72370;BME280;60343;-32.030;115.880;2023-01-15T09:08:16;100690.41;;;28.54;39.16
72370;BME280;60343;-32.030;115.880;2023-01-15T09:10:55;100687.56;;;28.40;38.74
72370;BME280;60343;-32.030;115.880;2023-01-15T09:13:30;100689.59;;;28.30;40.16
72370;BME280;60343;-32.030;115.880;2023-01-15T09:16:06;100682.91;;;28.07;40.37
72370;BME280;60343;-32.030;115.880;2023-01-15T09:18:41;100686.22;;;28.09;41.02
72370;BME280;60343;-32.030;115.880;2023-01-15T09:21:21;100689.56;;;28.06;40.88
72370;BME280;60343;-32.030;115.880;2023-01-15T09:23:55;100690.44;;;28.01;41.28
72370;BME280;60343;-32.030;115.880;2023-01-15T09:26:32;100687.31;;;28.08;41.14
72370;BME280;60343;-32.030;115.880;2023-01-15T09:29:07;100693.97;;;28.02;41.22
72370;BME280;60343;-32.030;115.880;2023-01-15T09:31:41;100700.69;;;27.96;41.67
72370;BME280;60343;-32.030;115.880;2023-01-15T09:34:16;100691.16;;;27.83;41.56
72370;BME280;60343;-32.030;115.880;2023-01-15T09:36:56;100686.56;;;27.73;41.48
72370;BME280;60343;-32.030;115.880;2023-01-15T09:39:30;100698.94;;;27.76;42.07
72370;BME280;60343;-32.030;115.880;2023-01-15T09:42:13;100701.38;;;27.78;41.87
72370;BME280;60343;-32.030;115.880;2023-01-15T09:45:13;100693.03;;;27.59;42.05
72370;BME280;60343;-32.030;115.880;2023-01-15T09:48:00;100689.78;;;27.52;42.14
72370;BME280;60343;-32.030;115.880;2023-01-15T09:50:50;100689.34;;;27.35;42.66
72370;BME280;60343;-32.030;115.880;2023-01-15T09:53:44;100699.03;;;27.22;43.11
72370;BME280;60343;-32.030;115.880;2023-01-15T09:56:25;100695.47;;;27.21;43.18
72370;BME280;60343;-32.030;115.880;2023-01-15T09:59:02;100702.13;;;27.15;42.46
72370;BME280;60343;-32.030;115.880;2023-01-15T10:01:38;100696.38;;;27.12;43.07
72370;BME280;60343;-32.030;115.880;2023-01-15T10:04:20;100699.38;;;27.15;42.87
72370;BME280;60343;-32.030;115.880;2023-01-15T10:07:10;100707.00;;;27.23;42.02
72370;BME280;60343;-32.030;115.880;2023-01-15T10:09:59;100709.53;;;27.20;41.78
72370;BME280;60343;-32.030;115.880;2023-01-15T10:12:36;100709.22;;;27.21;41.52
72370;BME280;60343;-32.030;115.880;2023-01-15T10:15:18;100724.16;;;27.10;42.24
72370;BME280;60343;-32.030;115.880;2023-01-15T10:17:55;100724.13;;;27.15;41.77
72370;BME280;60343;-32.030;115.880;2023-01-15T10:20:51;100726.38;;;27.03;40.14
72370;BME280;60343;-32.030;115.880;2023-01-15T10:23:37;100725.84;;;26.96;36.99
72370;BME280;60343;-32.030;115.880;2023-01-15T10:26:33;100727.00;;;26.85;38.71
72370;BME280;60343;-32.030;115.880;2023-01-15T10:29:18;100732.63;;;26.55;40.71
72370;BME280;60343;-32.030;115.880;2023-01-15T10:32:00;100742.28;;;26.37;41.60
72370;BME280;60343;-32.030;115.880;2023-01-15T10:37:45;100748.63;;;26.07;42.40
72370;BME280;60343;-32.030;115.880;2023-01-15T10:40:38;100754.13;;;25.82;42.94
72370;BME280;60343;-32.030;115.880;2023-01-15T10:43:27;100754.09;;;25.61;44.44
72370;BME280;60343;-32.030;115.880;2023-01-15T10:46:10;100762.84;;;25.48;45.70
72370;BME280;60343;-32.030;115.880;2023-01-15T10:48:47;100765.00;;;25.31;46.27
72370;BME280;60343;-32.030;115.880;2023-01-15T10:51:27;100769.38;;;25.27;46.91
72370;BME280;60343;-32.030;115.880;2023-01-15T10:54:06;100767.16;;;25.09;47.50
72370;BME280;60343;-32.030;115.880;2023-01-15T10:56:49;100772.00;;;24.92;47.39
72370;BME280;60343;-32.030;115.880;2023-01-15T10:59:41;100781.25;;;24.86;48.12
72370;BME280;60343;-32.030;115.880;2023-01-15T11:02:27;100776.22;;;24.62;48.26
72370;BME280;60343;-32.030;115.880;2023-01-15T11:05:04;100782.19;;;24.49;48.80
72370;BME280;60343;-32.030;115.880;2023-01-15T11:07:41;100788.66;;;24.33;49.54
72370;BME280;60343;-32.030;115.880;2023-01-15T11:10:18;100778.75;;;24.27;49.57
72370;BME280;60343;-32.030;115.880;2023-01-15T11:12:54;100788.53;;;24.18;49.84
72370;BME280;60343;-32.030;115.880;2023-01-15T11:15:45;100784.00;;;24.02;50.17
72370;BME280;60343;-32.030;115.880;2023-01-15T11:18:30;100791.34;;;23.96;50.52
72370;BME280;60343;-32.030;115.880;2023-01-15T11:21:16;100796.44;;;23.82;51.33
72370;BME280;60343;-32.030;115.880;2023-01-15T11:23:52;100808.69;;;23.80;51.34
72370;BME280;60343;-32.030;115.880;2023-01-15T11:26:30;100806.91;;;23.64;51.63
72370;BME280;60343;-32.030;115.880;2023-01-15T11:29:14;100816.16;;;23.58;51.92
72370;BME280;60343;-32.030;115.880;2023-01-15T11:31:58;100827.22;;;23.46;51.77
72370;BME280;60343;-32.030;115.880;2023-01-15T11:34:35;100826.31;;;23.40;51.83
72370;BME280;60343;-32.030;115.880;2023-01-15T11:37:10;100830.00;;;23.29;52.37
72370;BME280;60343;-32.030;115.880;2023-01-15T11:39:52;100839.13;;;23.13;52.57
72370;BME280;60343;-32.030;115.880;2023-01-15T11:42:30;100840.69;;;23.09;52.81
72370;BME280;60343;-32.030;115.880;2023-01-15T11:45:15;100845.75;;;23.00;52.83
72370;BME280;60343;-32.030;115.880;2023-01-15T11:48:14;100845.06;;;22.88;52.84
72370;BME280;60343;-32.030;115.880;2023-01-15T11:51:01;100851.78;;;22.81;52.92
72370;BME280;60343;-32.030;115.880;2023-01-15T11:53:44;100853.69;;;22.80;53.00
72370;BME280;60343;-32.030;115.880;2023-01-15T11:56:22;100865.13;;;22.77;53.50
72370;BME280;60343;-32.030;115.880;2023-01-15T11:58:56;100865.28;;;22.71;53.96
72370;BME280;60343;-32.030;115.880;2023-01-15T12:01:36;100860.03;;;22.69;54.00
72370;BME280;60343;-32.030;115.880;2023-01-15T12:04:38;100863.44;;;22.59;54.70
72370;BME280;60343;-32.030;115.880;2023-01-15T12:07:14;100875.09;;;22.55;55.16
72370;BME280;60343;-32.030;115.880;2023-01-15T12:10:18;100884.28;;;22.49;55.71
72370;BME280;60343;-32.030;115.880;2023-01-15T12:13:19;100883.31;;;22.38;55.76
72370;BME280;60343;-32.030;115.880;2023-01-15T12:16:03;100891.56;;;22.27;56.22
72370;BME280;60343;-32.030;115.880;2023-01-15T12:19:00;100896.63;;;22.18;56.35
72370;BME280;60343;-32.030;115.880;2023-01-15T12:22:00;100897.50;;;22.23;55.91
72370;BME280;60343;-32.030;115.880;2023-01-15T12:25:01;100902.31;;;22.16;56.59
72370;BME280;60343;-32.030;115.880;2023-01-15T12:27:55;100906.94;;;22.16;56.55
72370;BME280;60343;-32.030;115.880;2023-01-15T12:30:39;100913.13;;;22.11;56.79
72370;BME280;60343;-32.030;115.880;2023-01-15T12:33:34;100918.69;;;22.16;57.11
72370;BME280;60343;-32.030;115.880;2023-01-15T12:36:15;100910.59;;;22.21;57.21
72370;BME280;60343;-32.030;115.880;2023-01-15T12:38:59;100916.88;;;22.22;57.54
72370;BME280;60343;-32.030;115.880;2023-01-15T12:41:36;100917.50;;;22.12;57.48
72370;BME280;60343;-32.030;115.880;2023-01-15T12:44:24;100916.09;;;22.10;57.38
72370;BME280;60343;-32.030;115.880;2023-01-15T12:47:13;100913.28;;;22.05;57.55
72370;BME280;60343;-32.030;115.880;2023-01-15T12:49:56;100916.84;;;22.05;57.64
72370;BME280;60343;-32.030;115.880;2023-01-15T12:52:36;100912.22;;;22.06;57.46
72370;BME280;60343;-32.030;115.880;2023-01-15T12:55:21;100921.53;;;22.10;57.72
72370;BME280;60343;-32.030;115.880;2023-01-15T12:57:59;100917.66;;;22.06;57.63
72370;BME280;60343;-32.030;115.880;2023-01-15T13:00:40;100915.34;;;21.98;58.12
72370;BME280;60343;-32.030;115.880;2023-01-15T13:03:22;100926.50;;;21.96;58.50
72370;BME280;60343;-32.030;115.880;2023-01-15T13:05:58;100932.50;;;21.98;58.31
72370;BME280;60343;-32.030;115.880;2023-01-15T13:08:39;100939.75;;;21.93;58.45
72370;BME280;60343;-32.030;115.880;2023-01-15T13:11:24;100943.91;;;21.95;58.84
72370;BME280;60343;-32.030;115.880;2023-01-15T13:13:59;100939.88;;;21.86;59.25
72370;BME280;60343;-32.030;115.880;2023-01-15T13:16:39;100948.16;;;21.91;59.31
72370;BME280;60343;-32.030;115.880;2023-01-15T13:19:28;100944.84;;;21.89;59.42
72370;BME280;60343;-32.030;115.880;2023-01-15T13:22:09;100952.91;;;21.84;59.59
72370;BME280;60343;-32.030;115.880;2023-01-15T13:25:06;100955.72;;;21.72;60.21
72370;BME280;60343;-32.030;115.880;2023-01-15T13:27:58;100950.25;;;21.72;59.75
72370;BME280;60343;-32.030;115.880;2023-01-15T13:30:42;100953.41;;;21.81;59.59